VOE8UQ LFQQ-LFMN
Flight info
| Callsign | VOE8UQ |
|---|---|
| Flight time | 1h 29m |
| Altitude | 37000 |
| Route | VERMA T372 LESDO DCT KOVIN DCT DUCRA UM728 KETEX DCT KOTIS DCT KUKOR DCT UTUVA DCT LERGA DCT LIQID DCT LATAM DCT TUNUR DCT NISAR |
| Aircraft | A320/M-SDFGHIJ1RWY/LB1 |
Departure
| Time | 2026-04-15 08:14 |
|---|---|
| Airport | Lille Airport (LFQQ) |
Arrival
| Time | 2026-04-15 09:44 |
|---|---|
| Airport | Nice-Côte d'Azur Airport (LFMN) |
| Time | Latitude | Longitude | Altitude | Speed | Heading |
|---|---|---|---|---|---|
| 2026-04-15 07:48 | 50.57106 | 3.10612 | 152 ft | 0 kts | 348° |
| 2026-04-15 08:07 | 50.57083 | 3.10619 | 151 ft | 4 kts | 352° |
| 2026-04-15 08:07 | 50.57056 | 3.10622 | 151 ft | 4 kts | 4° |
| 2026-04-15 08:08 | 50.57033 | 3.10614 | 151 ft | 4 kts | 38° |
| 2026-04-15 08:08 | 50.57023 | 3.10595 | 151 ft | 1 kts | 77° |
| 2026-04-15 08:08 | 50.57022 | 3.10591 | 151 ft | 0 kts | 77° |
| 2026-04-15 08:10 | 50.57022 | 3.10592 | 151 ft | 1 kts | 77° |
| 2026-04-15 08:10 | 50.57027 | 3.10654 | 151 ft | 9 kts | 102° |
| 2026-04-15 08:10 | 50.56967 | 3.10710 | 151 ft | 12 kts | 163° |
| 2026-04-15 08:10 | 50.56867 | 3.10761 | 151 ft | 19 kts | 139° |
| 2026-04-15 08:11 | 50.56865 | 3.10965 | 151 ft | 20 kts | 78° |
| 2026-04-15 08:11 | 50.56895 | 3.11188 | 151 ft | 22 kts | 77° |
| 2026-04-15 08:11 | 50.56930 | 3.11424 | 151 ft | 21 kts | 77° |
| 2026-04-15 08:11 | 50.56924 | 3.11587 | 151 ft | 10 kts | 140° |
| 2026-04-15 08:12 | 50.56911 | 3.11594 | 151 ft | 0 kts | 162° |
| 2026-04-15 08:12 | 50.56890 | 3.11604 | 152 ft | 6 kts | 165° |
| 2026-04-15 08:13 | 50.56829 | 3.11627 | 152 ft | 13 kts | 164° |
| 2026-04-15 08:13 | 50.56766 | 3.11631 | 154 ft | 9 kts | 257° |
| 2026-04-15 08:13 | 50.56720 | 3.11348 | 153 ft | 61 kts | 257° |
| 2026-04-15 08:13 | 50.56578 | 3.10335 | 152 ft | 126 kts | 257° |
| 2026-04-15 08:14 | 50.56362 | 3.08776 | 313 ft | 157 kts | 253° |
| 2026-04-15 08:14 | 50.56096 | 3.07141 | 1014 ft | 154 kts | 236° |
| 2026-04-15 08:14 | 50.55281 | 3.06195 | 1707 ft | 146 kts | 199° |
| 2026-04-15 08:14 | 50.54313 | 3.05589 | 2247 ft | 161 kts | 204° |
| 2026-04-15 08:15 | 50.53215 | 3.04818 | 2571 ft | 187 kts | 205° |
| 2026-04-15 08:15 | 50.51937 | 3.03914 | 3011 ft | 212 kts | 198° |
| 2026-04-15 08:15 | 50.50386 | 3.03660 | 3487 ft | 237 kts | 181° |
| 2026-04-15 08:15 | 50.48694 | 3.03693 | 4234 ft | 248 kts | 176° |
| 2026-04-15 08:16 | 50.46991 | 3.04282 | 5133 ft | 254 kts | 167° |
| 2026-04-15 08:16 | 50.45267 | 3.05014 | 6008 ft | 259 kts | 167° |
| 2026-04-15 08:16 | 50.43510 | 3.05769 | 6833 ft | 264 kts | 167° |
| 2026-04-15 08:16 | 50.41718 | 3.06540 | 7651 ft | 269 kts | 167° |
| 2026-04-15 08:17 | 50.39894 | 3.07323 | 8470 ft | 274 kts | 167° |
| 2026-04-15 08:17 | 50.38039 | 3.08117 | 9295 ft | 279 kts | 167° |
| 2026-04-15 08:17 | 50.36150 | 3.08927 | 10102 ft | 283 kts | 167° |
| 2026-04-15 08:17 | 50.34212 | 3.09752 | 10605 ft | 299 kts | 167° |
| 2026-04-15 08:18 | 50.32125 | 3.10637 | 10856 ft | 322 kts | 167° |
| 2026-04-15 08:18 | 50.29929 | 3.11574 | 11429 ft | 331 kts | 167° |
| 2026-04-15 08:18 | 50.27688 | 3.12535 | 12164 ft | 336 kts | 167° |
| 2026-04-15 08:18 | 50.25419 | 3.13497 | 12899 ft | 340 kts | 167° |
| 2026-04-15 08:19 | 50.23117 | 3.14456 | 13647 ft | 344 kts | 167° |
| 2026-04-15 08:19 | 50.21576 | 3.15091 | 14111 ft | 347 kts | 167° |
| 2026-04-15 08:19 | 50.19269 | 3.16034 | 14720 ft | 352 kts | 167° |
| 2026-04-15 08:19 | 50.17008 | 3.16956 | 15307 ft | 356 kts | 167° |
| 2026-04-15 08:20 | 50.14598 | 3.17943 | 15915 ft | 360 kts | 167° |
| 2026-04-15 08:20 | 50.12161 | 3.18938 | 16525 ft | 365 kts | 167° |
| 2026-04-15 08:20 | 50.08882 | 3.20273 | 17342 ft | 370 kts | 167° |
| 2026-04-15 08:20 | 50.06378 | 3.21299 | 17944 ft | 374 kts | 167° |
| 2026-04-15 08:21 | 50.03845 | 3.22340 | 18546 ft | 378 kts | 167° |
| 2026-04-15 08:21 | 50.02121 | 3.23047 | 18888 ft | 381 kts | 167° |
| 2026-04-15 08:21 | 49.99548 | 3.24099 | 19429 ft | 384 kts | 167° |
| 2026-04-15 08:21 | 49.96957 | 3.25163 | 19984 ft | 388 kts | 167° |
| 2026-04-15 08:22 | 49.94330 | 3.26247 | 20536 ft | 391 kts | 167° |
| 2026-04-15 08:22 | 49.91685 | 3.27338 | 21078 ft | 394 kts | 167° |
| 2026-04-15 08:22 | 49.89028 | 3.28431 | 21611 ft | 397 kts | 167° |
| 2026-04-15 08:22 | 49.86340 | 3.29536 | 22151 ft | 401 kts | 167° |
| 2026-04-15 08:23 | 49.83604 | 3.30402 | 22682 ft | 402 kts | 175° |
| 2026-04-15 08:23 | 49.80805 | 3.30485 | 23196 ft | 403 kts | 187° |
| 2026-04-15 08:23 | 49.78042 | 3.29744 | 23714 ft | 404 kts | 198° |
| 2026-04-15 08:23 | 49.75405 | 3.28231 | 24146 ft | 406 kts | 205° |
| 2026-04-15 08:24 | 49.72806 | 3.26491 | 24576 ft | 408 kts | 205° |
| 2026-04-15 08:24 | 49.70186 | 3.24760 | 24995 ft | 411 kts | 205° |
| 2026-04-15 08:24 | 49.67546 | 3.23029 | 25397 ft | 413 kts | 205° |
| 2026-04-15 08:24 | 49.64896 | 3.21290 | 25778 ft | 415 kts | 205° |
| 2026-04-15 08:25 | 49.62264 | 3.19564 | 26160 ft | 418 kts | 205° |
| 2026-04-15 08:25 | 49.59582 | 3.17808 | 26527 ft | 420 kts | 205° |
| 2026-04-15 08:25 | 49.56890 | 3.16050 | 26889 ft | 422 kts | 205° |
| 2026-04-15 08:25 | 49.54177 | 3.14288 | 27245 ft | 424 kts | 205° |
| 2026-04-15 08:26 | 49.51448 | 3.12518 | 27597 ft | 426 kts | 205° |
| 2026-04-15 08:26 | 49.48738 | 3.10651 | 27950 ft | 427 kts | 210° |
| 2026-04-15 08:26 | 49.46218 | 3.08249 | 28287 ft | 427 kts | 216° |
| 2026-04-15 08:26 | 49.43739 | 3.05709 | 28615 ft | 429 kts | 216° |
| 2026-04-15 08:27 | 49.41245 | 3.03163 | 28959 ft | 431 kts | 216° |
| 2026-04-15 08:27 | 49.38740 | 3.00618 | 29175 ft | 433 kts | 216° |
| 2026-04-15 08:27 | 49.36229 | 2.98071 | 29216 ft | 432 kts | 216° |
| 2026-04-15 08:28 | 49.31209 | 2.92993 | 29213 ft | 432 kts | 216° |
| 2026-04-15 08:28 | 49.26193 | 2.87931 | 29214 ft | 432 kts | 216° |
| 2026-04-15 08:29 | 49.22675 | 2.84389 | 29223 ft | 432 kts | 216° |
| 2026-04-15 08:29 | 49.18136 | 2.79826 | 29218 ft | 432 kts | 216° |
| 2026-04-15 08:30 | 49.13114 | 2.74791 | 29221 ft | 432 kts | 216° |
| 2026-04-15 08:30 | 49.08089 | 2.69765 | 29216 ft | 432 kts | 216° |
| 2026-04-15 08:31 | 49.03067 | 2.64753 | 29217 ft | 431 kts | 216° |
| 2026-04-15 08:31 | 48.98043 | 2.59747 | 29222 ft | 431 kts | 215° |
| 2026-04-15 08:32 | 48.93025 | 2.54768 | 29220 ft | 431 kts | 215° |
| 2026-04-15 08:32 | 48.87999 | 2.49788 | 29220 ft | 431 kts | 215° |
| 2026-04-15 08:33 | 48.82972 | 2.44819 | 29219 ft | 431 kts | 215° |
| 2026-04-15 08:33 | 48.77941 | 2.39854 | 29222 ft | 431 kts | 215° |
| 2026-04-15 08:34 | 48.73239 | 2.35229 | 29216 ft | 431 kts | 215° |
| 2026-04-15 08:34 | 48.68585 | 2.30660 | 29216 ft | 431 kts | 215° |
| 2026-04-15 08:35 | 48.63543 | 2.25735 | 29219 ft | 431 kts | 215° |
| 2026-04-15 08:35 | 48.58242 | 2.21863 | 29218 ft | 436 kts | 197° |
| 2026-04-15 08:35 | 48.55247 | 2.21070 | 29215 ft | 440 kts | 186° |
| 2026-04-15 08:36 | 48.52173 | 2.21166 | 29213 ft | 444 kts | 175° |
| 2026-04-15 08:36 | 48.46129 | 2.23277 | 29217 ft | 447 kts | 168° |
| 2026-04-15 08:37 | 48.40096 | 2.25568 | 29214 ft | 447 kts | 168° |
| 2026-04-15 08:37 | 48.34054 | 2.27835 | 29215 ft | 448 kts | 168° |
| 2026-04-15 08:38 | 48.27999 | 2.30115 | 29217 ft | 448 kts | 168° |
| 2026-04-15 08:38 | 48.21959 | 2.32482 | 29219 ft | 449 kts | 167° |
| 2026-04-15 08:39 | 48.15922 | 2.34930 | 29217 ft | 450 kts | 167° |
| 2026-04-15 08:39 | 48.09878 | 2.37504 | 29556 ft | 454 kts | 165° |
| 2026-04-15 08:39 | 48.06867 | 2.38976 | 29875 ft | 457 kts | 163° |
| 2026-04-15 08:40 | 48.03847 | 2.40531 | 30163 ft | 460 kts | 163° |
| 2026-04-15 08:40 | 48.00820 | 2.42113 | 30421 ft | 462 kts | 163° |
| 2026-04-15 08:40 | 47.97783 | 2.43686 | 30656 ft | 464 kts | 163° |
| 2026-04-15 08:40 | 47.94722 | 2.45243 | 30889 ft | 465 kts | 163° |
| 2026-04-15 08:41 | 47.91648 | 2.46779 | 31110 ft | 467 kts | 163° |
| 2026-04-15 08:41 | 47.88554 | 2.48306 | 31327 ft | 469 kts | 164° |
| 2026-04-15 08:41 | 47.85448 | 2.49828 | 31601 ft | 469 kts | 164° |
| 2026-04-15 08:41 | 47.82349 | 2.51346 | 31915 ft | 469 kts | 164° |
| 2026-04-15 08:42 | 47.79252 | 2.52869 | 32218 ft | 468 kts | 164° |
| 2026-04-15 08:42 | 47.76201 | 2.54370 | 32507 ft | 468 kts | 164° |
| 2026-04-15 08:42 | 47.73114 | 2.55884 | 32819 ft | 468 kts | 164° |
| 2026-04-15 08:42 | 47.69980 | 2.57417 | 33117 ft | 468 kts | 164° |
| 2026-04-15 08:43 | 47.66894 | 2.58930 | 33413 ft | 467 kts | 164° |
| 2026-04-15 08:43 | 47.63845 | 2.60426 | 33702 ft | 467 kts | 164° |
| 2026-04-15 08:43 | 47.60761 | 2.61939 | 33989 ft | 467 kts | 164° |
| 2026-04-15 08:43 | 47.57671 | 2.63451 | 34289 ft | 467 kts | 164° |
| 2026-04-15 08:44 | 47.54586 | 2.64957 | 34558 ft | 467 kts | 164° |
| 2026-04-15 08:44 | 47.51503 | 2.66457 | 34818 ft | 466 kts | 164° |
| 2026-04-15 08:44 | 47.48421 | 2.67952 | 35062 ft | 466 kts | 164° |
| 2026-04-15 08:44 | 47.45338 | 2.69446 | 35295 ft | 466 kts | 164° |
| 2026-04-15 08:45 | 47.42261 | 2.70931 | 35533 ft | 466 kts | 164° |
| 2026-04-15 08:45 | 47.39185 | 2.72421 | 35764 ft | 465 kts | 164° |
| 2026-04-15 08:45 | 47.36112 | 2.73916 | 35986 ft | 465 kts | 164° |
| 2026-04-15 08:45 | 47.33035 | 2.75416 | 36199 ft | 465 kts | 164° |
| 2026-04-15 08:46 | 47.29964 | 2.76911 | 36406 ft | 465 kts | 164° |
| 2026-04-15 08:46 | 47.26892 | 2.78398 | 36604 ft | 465 kts | 164° |
| 2026-04-15 08:46 | 47.23813 | 2.79878 | 36804 ft | 465 kts | 164° |
| 2026-04-15 08:46 | 47.20739 | 2.81352 | 36994 ft | 465 kts | 164° |
| 2026-04-15 08:47 | 47.17670 | 2.82821 | 37181 ft | 465 kts | 164° |
| 2026-04-15 08:47 | 47.11530 | 2.85756 | 37246 ft | 463 kts | 164° |
| 2026-04-15 08:48 | 47.05409 | 2.88683 | 37246 ft | 463 kts | 164° |
| 2026-04-15 08:48 | 46.99280 | 2.91612 | 37246 ft | 463 kts | 164° |
| 2026-04-15 08:49 | 46.93154 | 2.94534 | 37248 ft | 464 kts | 164° |
| 2026-04-15 08:49 | 46.87013 | 2.97445 | 37240 ft | 464 kts | 164° |
| 2026-04-15 08:50 | 46.80874 | 3.00349 | 37235 ft | 464 kts | 164° |
| 2026-04-15 08:50 | 46.74729 | 3.03247 | 37230 ft | 464 kts | 164° |
| 2026-04-15 08:51 | 46.68599 | 3.06139 | 37224 ft | 465 kts | 163° |
| 2026-04-15 08:51 | 46.62426 | 3.09058 | 37222 ft | 465 kts | 163° |
| 2026-04-15 08:52 | 46.56259 | 3.11950 | 37221 ft | 466 kts | 163° |
| 2026-04-15 08:52 | 46.50110 | 3.14947 | 37221 ft | 467 kts | 161° |
| 2026-04-15 08:53 | 46.44032 | 3.18265 | 37225 ft | 467 kts | 160° |
| 2026-04-15 08:53 | 46.37995 | 3.21629 | 37226 ft | 468 kts | 160° |
| 2026-04-15 08:54 | 46.31904 | 3.24938 | 37226 ft | 468 kts | 161° |
| 2026-04-15 08:54 | 46.25789 | 3.28186 | 37232 ft | 468 kts | 161° |
| 2026-04-15 08:55 | 46.19666 | 3.31430 | 37234 ft | 469 kts | 161° |
| 2026-04-15 08:55 | 46.13536 | 3.34692 | 37234 ft | 469 kts | 160° |
| 2026-04-15 08:56 | 46.07410 | 3.37960 | 37233 ft | 470 kts | 160° |
| 2026-04-15 08:56 | 46.01272 | 3.41223 | 37229 ft | 470 kts | 160° |
| 2026-04-15 08:57 | 45.95124 | 3.44472 | 37227 ft | 471 kts | 160° |
| 2026-04-15 08:57 | 45.88969 | 3.47706 | 37229 ft | 471 kts | 160° |
| 2026-04-15 08:58 | 45.82783 | 3.50815 | 37228 ft | 471 kts | 163° |
| 2026-04-15 08:58 | 45.73373 | 3.54773 | 37226 ft | 472 kts | 165° |
| 2026-04-15 08:59 | 45.67067 | 3.57378 | 37221 ft | 472 kts | 164° |
| 2026-04-15 08:59 | 45.60762 | 3.60064 | 37218 ft | 473 kts | 163° |
| 2026-04-15 09:00 | 45.54467 | 3.62776 | 37220 ft | 473 kts | 163° |
| 2026-04-15 09:00 | 45.48159 | 3.65494 | 37219 ft | 473 kts | 163° |
| 2026-04-15 09:01 | 45.41845 | 3.68188 | 37220 ft | 474 kts | 163° |
| 2026-04-15 09:01 | 45.35523 | 3.70870 | 37215 ft | 474 kts | 163° |
| 2026-04-15 09:02 | 45.29328 | 3.74054 | 37213 ft | 473 kts | 150° |
| 2026-04-15 09:02 | 45.24129 | 3.79589 | 37211 ft | 468 kts | 130° |
| 2026-04-15 09:03 | 45.20314 | 3.86969 | 37210 ft | 463 kts | 119° |
| 2026-04-15 09:03 | 45.16814 | 3.94648 | 37207 ft | 464 kts | 119° |
| 2026-04-15 09:04 | 45.13294 | 4.02326 | 37217 ft | 464 kts | 119° |
| 2026-04-15 09:04 | 45.09778 | 4.09999 | 37236 ft | 464 kts | 119° |
| 2026-04-15 09:05 | 45.06266 | 4.17658 | 37239 ft | 464 kts | 119° |
| 2026-04-15 09:05 | 45.02573 | 4.25154 | 37229 ft | 468 kts | 128° |
| 2026-04-15 09:06 | 44.98176 | 4.31949 | 37229 ft | 468 kts | 129° |
| 2026-04-15 09:06 | 44.93772 | 4.38718 | 37219 ft | 468 kts | 129° |
| 2026-04-15 09:07 | 44.89645 | 4.45044 | 37219 ft | 468 kts | 128° |
| 2026-04-15 09:07 | 44.86917 | 4.49222 | 37215 ft | 468 kts | 128° |
| 2026-04-15 09:08 | 44.82701 | 4.55664 | 37218 ft | 468 kts | 128° |
| 2026-04-15 09:08 | 44.78274 | 4.62389 | 37215 ft | 468 kts | 128° |
| 2026-04-15 09:09 | 44.73859 | 4.69097 | 37213 ft | 467 kts | 128° |
| 2026-04-15 09:09 | 44.69443 | 4.75814 | 37211 ft | 468 kts | 128° |
| 2026-04-15 09:10 | 44.65017 | 4.82509 | 37207 ft | 468 kts | 128° |
| 2026-04-15 09:10 | 44.61372 | 4.88103 | 37198 ft | 467 kts | 127° |
| 2026-04-15 09:11 | 44.57110 | 4.94954 | 37184 ft | 466 kts | 126° |
| 2026-04-15 09:11 | 44.52860 | 5.01838 | 37164 ft | 467 kts | 126° |
| 2026-04-15 09:12 | 44.48567 | 5.08686 | 37157 ft | 468 kts | 126° |
| 2026-04-15 09:12 | 44.46412 | 5.12096 | 36891 ft | 470 kts | 126° |
| 2026-04-15 09:12 | 44.44235 | 5.15542 | 35425 ft | 477 kts | 126° |
| 2026-04-15 09:13 | 44.42027 | 5.19044 | 34096 ft | 481 kts | 126° |
| 2026-04-15 09:13 | 44.39815 | 5.22546 | 32905 ft | 478 kts | 127° |
| 2026-04-15 09:13 | 44.37594 | 5.25955 | 32031 ft | 471 kts | 132° |
| 2026-04-15 09:13 | 44.35129 | 5.28860 | 31694 ft | 459 kts | 138° |
| 2026-04-15 09:14 | 44.32629 | 5.31583 | 31174 ft | 452 kts | 137° |
| 2026-04-15 09:14 | 44.30173 | 5.34277 | 30653 ft | 446 kts | 137° |
| 2026-04-15 09:14 | 44.27743 | 5.36940 | 30166 ft | 443 kts | 137° |
| 2026-04-15 09:14 | 44.25321 | 5.39590 | 29608 ft | 440 kts | 137° |
| 2026-04-15 09:15 | 44.22924 | 5.42201 | 29136 ft | 435 kts | 138° |
| 2026-04-15 09:15 | 44.20544 | 5.44773 | 28721 ft | 430 kts | 138° |
| 2026-04-15 09:15 | 44.18188 | 5.47314 | 28354 ft | 426 kts | 137° |
| 2026-04-15 09:15 | 44.15858 | 5.49840 | 28089 ft | 423 kts | 137° |
| 2026-04-15 09:16 | 44.13554 | 5.52341 | 27677 ft | 418 kts | 137° |
| 2026-04-15 09:16 | 44.11265 | 5.54826 | 27253 ft | 415 kts | 137° |
| 2026-04-15 09:16 | 44.08997 | 5.57284 | 26822 ft | 412 kts | 137° |
| 2026-04-15 09:16 | 44.06744 | 5.59722 | 26388 ft | 409 kts | 137° |
| 2026-04-15 09:17 | 44.04508 | 5.62138 | 25963 ft | 406 kts | 137° |
| 2026-04-15 09:17 | 44.02279 | 5.64540 | 25501 ft | 404 kts | 137° |
| 2026-04-15 09:17 | 44.00065 | 5.66922 | 25058 ft | 402 kts | 137° |
| 2026-04-15 09:17 | 43.97862 | 5.69295 | 24580 ft | 400 kts | 137° |
| 2026-04-15 09:18 | 43.95699 | 5.71632 | 24122 ft | 399 kts | 137° |
| 2026-04-15 09:18 | 43.93628 | 5.74082 | 23932 ft | 386 kts | 134° |
| 2026-04-15 09:18 | 43.91536 | 5.76488 | 23109 ft | 396 kts | 137° |
| 2026-04-15 09:18 | 43.89347 | 5.78788 | 22634 ft | 394 kts | 139° |
| 2026-04-15 09:19 | 43.87140 | 5.81019 | 22158 ft | 392 kts | 140° |
| 2026-04-15 09:19 | 43.84945 | 5.83243 | 21684 ft | 389 kts | 139° |
| 2026-04-15 09:19 | 43.82781 | 5.85472 | 21212 ft | 387 kts | 139° |
| 2026-04-15 09:19 | 43.80644 | 5.87716 | 20740 ft | 385 kts | 139° |
| 2026-04-15 09:20 | 43.78534 | 5.89963 | 20274 ft | 383 kts | 139° |
| 2026-04-15 09:20 | 43.76428 | 5.92215 | 19806 ft | 381 kts | 139° |
| 2026-04-15 09:20 | 43.74335 | 5.94451 | 19344 ft | 379 kts | 139° |
| 2026-04-15 09:20 | 43.72263 | 5.96665 | 18969 ft | 374 kts | 140° |
| 2026-04-15 09:21 | 43.70202 | 5.98861 | 18541 ft | 370 kts | 140° |
| 2026-04-15 09:21 | 43.68187 | 6.00999 | 17943 ft | 360 kts | 140° |
| 2026-04-15 09:21 | 43.66238 | 6.03061 | 17515 ft | 345 kts | 140° |
| 2026-04-15 09:21 | 43.64366 | 6.05039 | 17112 ft | 332 kts | 140° |
| 2026-04-15 09:22 | 43.62564 | 6.06942 | 16720 ft | 321 kts | 140° |
| 2026-04-15 09:22 | 43.60884 | 6.08882 | 16348 ft | 309 kts | 131° |
| 2026-04-15 09:22 | 43.59545 | 6.11175 | 15999 ft | 308 kts | 120° |
| 2026-04-15 09:22 | 43.58549 | 6.13866 | 15659 ft | 320 kts | 108° |
| 2026-04-15 09:23 | 43.57767 | 6.16750 | 15316 ft | 322 kts | 108° |
| 2026-04-15 09:23 | 43.56980 | 6.19634 | 14972 ft | 321 kts | 108° |
| 2026-04-15 09:23 | 43.56187 | 6.22512 | 14629 ft | 320 kts | 108° |
| 2026-04-15 09:23 | 43.55397 | 6.25368 | 14285 ft | 319 kts | 108° |
| 2026-04-15 09:24 | 43.54606 | 6.28221 | 13948 ft | 317 kts | 108° |
| 2026-04-15 09:24 | 43.53820 | 6.31052 | 13579 ft | 315 kts | 108° |
| 2026-04-15 09:24 | 43.53037 | 6.33866 | 13235 ft | 313 kts | 108° |
| 2026-04-15 09:24 | 43.52260 | 6.36662 | 12905 ft | 312 kts | 108° |
| 2026-04-15 09:25 | 43.51495 | 6.39430 | 12646 ft | 307 kts | 108° |
| 2026-04-15 09:25 | 43.50707 | 6.42146 | 12274 ft | 306 kts | 114° |
| 2026-04-15 09:25 | 43.49553 | 6.44607 | 11966 ft | 306 kts | 128° |
| 2026-04-15 09:25 | 43.48106 | 6.46725 | 11781 ft | 303 kts | 132° |
| 2026-04-15 09:26 | 43.46652 | 6.48817 | 11583 ft | 302 kts | 131° |
| 2026-04-15 09:26 | 43.45208 | 6.50901 | 11377 ft | 300 kts | 131° |
| 2026-04-15 09:26 | 43.43769 | 6.52980 | 11176 ft | 299 kts | 131° |
| 2026-04-15 09:26 | 43.42336 | 6.55050 | 10967 ft | 298 kts | 131° |
| 2026-04-15 09:27 | 43.40905 | 6.57109 | 10776 ft | 298 kts | 132° |
| 2026-04-15 09:27 | 43.39567 | 6.59268 | 10570 ft | 295 kts | 121° |
| 2026-04-15 09:27 | 43.38682 | 6.61774 | 10370 ft | 291 kts | 105° |
| 2026-04-15 09:27 | 43.38299 | 6.64484 | 10169 ft | 287 kts | 91° |
| 2026-04-15 09:28 | 43.38194 | 6.67218 | 9977 ft | 286 kts | 91° |
| 2026-04-15 09:28 | 43.38082 | 6.69951 | 9784 ft | 286 kts | 91° |
| 2026-04-15 09:28 | 43.37967 | 6.72669 | 9601 ft | 285 kts | 91° |
| 2026-04-15 09:28 | 43.37852 | 6.75386 | 9421 ft | 284 kts | 91° |
| 2026-04-15 09:29 | 43.37737 | 6.78088 | 9233 ft | 283 kts | 91° |
| 2026-04-15 09:29 | 43.37623 | 6.80794 | 9060 ft | 283 kts | 91° |
| 2026-04-15 09:29 | 43.37523 | 6.83144 | 8892 ft | 282 kts | 91° |
| 2026-04-15 09:29 | 43.37409 | 6.85798 | 8716 ft | 281 kts | 91° |
| 2026-04-15 09:30 | 43.37294 | 6.88511 | 8535 ft | 280 kts | 91° |
| 2026-04-15 09:30 | 43.37186 | 6.91137 | 8213 ft | 276 kts | 91° |
| 2026-04-15 09:30 | 43.37076 | 6.93760 | 7556 ft | 274 kts | 91° |
| 2026-04-15 09:30 | 43.36966 | 6.96361 | 7366 ft | 275 kts | 91° |
| 2026-04-15 09:31 | 43.36857 | 6.98942 | 7266 ft | 275 kts | 91° |
| 2026-04-15 09:31 | 43.36743 | 7.01596 | 7167 ft | 274 kts | 91° |
| 2026-04-15 09:31 | 43.36630 | 7.04177 | 7071 ft | 274 kts | 91° |
| 2026-04-15 09:31 | 43.36514 | 7.06786 | 6973 ft | 273 kts | 91° |
| 2026-04-15 09:32 | 43.36394 | 7.09421 | 6875 ft | 273 kts | 91° |
| 2026-04-15 09:32 | 43.36275 | 7.12016 | 6773 ft | 272 kts | 91° |
| 2026-04-15 09:32 | 43.36155 | 7.14571 | 6682 ft | 271 kts | 91° |
| 2026-04-15 09:32 | 43.36311 | 7.17117 | 6565 ft | 266 kts | 71° |
| 2026-04-15 09:33 | 43.37093 | 7.19399 | 6442 ft | 264 kts | 59° |
| 2026-04-15 09:33 | 43.37988 | 7.21602 | 6313 ft | 264 kts | 59° |
| 2026-04-15 09:33 | 43.38884 | 7.23807 | 6184 ft | 264 kts | 59° |
| 2026-04-15 09:33 | 43.39775 | 7.26009 | 6056 ft | 264 kts | 59° |
| 2026-04-15 09:34 | 43.40667 | 7.28216 | 5926 ft | 263 kts | 59° |
| 2026-04-15 09:34 | 43.41555 | 7.30415 | 5801 ft | 263 kts | 59° |
| 2026-04-15 09:34 | 43.42442 | 7.32610 | 5675 ft | 263 kts | 59° |
| 2026-04-15 09:34 | 43.43330 | 7.34804 | 5552 ft | 262 kts | 59° |
| 2026-04-15 09:35 | 43.44214 | 7.36997 | 5420 ft | 262 kts | 59° |
| 2026-04-15 09:35 | 43.45093 | 7.39183 | 5303 ft | 261 kts | 59° |
| 2026-04-15 09:35 | 43.45969 | 7.41367 | 5176 ft | 260 kts | 59° |
| 2026-04-15 09:35 | 43.46844 | 7.43548 | 5046 ft | 260 kts | 60° |
| 2026-04-15 09:36 | 43.47715 | 7.45718 | 4928 ft | 259 kts | 59° |
| 2026-04-15 09:36 | 43.48607 | 7.47870 | 4728 ft | 256 kts | 54° |
| 2026-04-15 09:36 | 43.49864 | 7.49524 | 4469 ft | 246 kts | 30° |
| 2026-04-15 09:36 | 43.51403 | 7.50322 | 4414 ft | 230 kts | 9° |
| 2026-04-15 09:37 | 43.52955 | 7.50304 | 4336 ft | 219 kts | 351° |
| 2026-04-15 09:37 | 43.54423 | 7.49947 | 4247 ft | 209 kts | 352° |
| 2026-04-15 09:37 | 43.55818 | 7.49612 | 4146 ft | 199 kts | 352° |
| 2026-04-15 09:37 | 43.57157 | 7.49223 | 4056 ft | 196 kts | 341° |
| 2026-04-15 09:38 | 43.58337 | 7.48288 | 3943 ft | 199 kts | 321° |
| 2026-04-15 09:38 | 43.59230 | 7.46819 | 3661 ft | 200 kts | 306° |
| 2026-04-15 09:38 | 43.60018 | 7.45260 | 3342 ft | 196 kts | 306° |
| 2026-04-15 09:38 | 43.60780 | 7.43761 | 3049 ft | 186 kts | 306° |
| 2026-04-15 09:39 | 43.61510 | 7.42328 | 2798 ft | 179 kts | 306° |
| 2026-04-15 09:39 | 43.62155 | 7.40881 | 2433 ft | 175 kts | 301° |
| 2026-04-15 09:39 | 43.62797 | 7.39543 | 2285 ft | 160 kts | 306° |
| 2026-04-15 09:39 | 43.63437 | 7.38329 | 2100 ft | 154 kts | 306° |
| 2026-04-15 09:40 | 43.64069 | 7.37156 | 1968 ft | 151 kts | 306° |
| 2026-04-15 09:40 | 43.64702 | 7.36000 | 1827 ft | 150 kts | 307° |
| 2026-04-15 09:40 | 43.65331 | 7.34852 | 1730 ft | 150 kts | 306° |
| 2026-04-15 09:40 | 43.65962 | 7.33701 | 1663 ft | 150 kts | 307° |
| 2026-04-15 09:41 | 43.66604 | 7.32553 | 1576 ft | 152 kts | 307° |
| 2026-04-15 09:41 | 43.67254 | 7.31415 | 1439 ft | 151 kts | 308° |
| 2026-04-15 09:41 | 43.67859 | 7.30237 | 1327 ft | 150 kts | 294° |
| 2026-04-15 09:41 | 43.68112 | 7.28849 | 1226 ft | 151 kts | 278° |
| 2026-04-15 09:42 | 43.68263 | 7.27416 | 900 ft | 150 kts | 276° |
| 2026-04-15 09:42 | 43.68347 | 7.26008 | 655 ft | 148 kts | 266° |
| 2026-04-15 09:42 | 43.68123 | 7.24617 | 527 ft | 147 kts | 242° |
| 2026-04-15 09:42 | 43.67481 | 7.23541 | 253 ft | 145 kts | 221° |
| 2026-04-15 09:43 | 43.66832 | 7.22671 | 51 ft | 144 kts | 222° |
| 2026-04-15 09:43 | 43.66694 | 7.22487 | 49 ft | 143 kts | 221° |
| 2026-04-15 09:43 | 43.66387 | 7.22071 | 27 ft | 138 kts | 225° |
| 2026-04-15 09:43 | 43.65965 | 7.21483 | 21 ft | 101 kts | 224° |
| 2026-04-15 09:44 | 43.65665 | 7.21073 | 22 ft | 32 kts | 224° |
| 2026-04-15 09:44 | 43.65701 | 7.20886 | 21 ft | 21 kts | 2° |
| 2026-04-15 09:44 | 43.65843 | 7.20850 | 21 ft | 22 kts | 348° |
| 2026-04-15 09:44 | 43.65993 | 7.20818 | 21 ft | 23 kts | 353° |
| 2026-04-15 09:45 | 43.66144 | 7.20786 | 21 ft | 20 kts | 351° |
| 2026-04-15 09:45 | 43.66234 | 7.20756 | 23 ft | 7 kts | 310° |
| 2026-04-15 09:45 | 43.66234 | 7.20733 | 21 ft | 3 kts | 268° |
| 2026-04-15 09:45 | 43.66230 | 7.20691 | 22 ft | 5 kts | 261° |
| 2026-04-15 09:46 | 43.66228 | 7.20673 | 21 ft | 1 kts | 261° |
| 2026-04-15 09:46 | 43.66227 | 7.20666 | 21 ft | 0 kts | 261° |